createdAt,value
2022-08-17T00:01:51.999Z,2.90
2022-08-17T00:04:21.224Z,2.47
2022-08-17T00:06:50.246Z,2.17
2022-08-17T00:09:19.462Z,2.30
2022-08-17T00:12:34.956Z,2.60
2022-08-17T00:14:38.599Z,2.53
2022-08-17T00:17:07.032Z,2.80
2022-08-17T00:19:35.298Z,2.65
2022-08-17T00:22:31.642Z,2.83
2022-08-17T00:24:54.755Z,3.00
2022-08-17T00:27:25.000Z,2.83
2022-08-17T00:29:53.458Z,2.53
2022-08-17T00:33:12.212Z,3.30
2022-08-17T00:35:12.269Z,2.78
2022-08-17T00:37:40.478Z,2.65
2022-08-17T00:40:10.081Z,3.00
2022-08-17T00:42:40.600Z,2.67
2022-08-17T00:45:11.534Z,2.88
2022-08-17T00:47:40.463Z,2.83
2022-08-17T00:50:11.387Z,2.88
2022-08-17T00:52:49.592Z,3.08
2022-08-17T00:55:18.816Z,2.80
2022-08-17T00:57:55.390Z,2.45
2022-08-17T01:00:27.059Z,2.80
2022-08-17T01:03:00.247Z,3.15
2022-08-17T01:08:01.278Z,2.40
2022-08-17T01:10:58.798Z,2.67
2022-08-17T01:13:35.591Z,3.00
2022-08-17T01:16:15.910Z,2.92
2022-08-17T01:18:46.466Z,2.85
2022-08-17T01:21:21.374Z,3.28
2022-08-17T01:23:51.019Z,2.80
2022-08-17T01:26:20.371Z,2.92
2022-08-17T01:28:54.181Z,3.15
2022-08-17T01:31:24.883Z,2.92
2022-08-17T01:33:53.283Z,3.17
2022-08-17T01:36:21.441Z,2.65
2022-08-17T01:38:50.939Z,3.17
2022-08-17T01:41:22.646Z,3.22
2022-08-17T01:43:55.132Z,3.03
2022-08-17T01:46:28.024Z,3.13
2022-08-17T01:48:57.613Z,3.03
2022-08-17T01:51:27.340Z,3.40
2022-08-17T01:54:00.248Z,4.15
2022-08-17T01:56:30.630Z,3.80
2022-08-17T01:58:58.732Z,3.30
2022-08-17T02:01:30.699Z,3.47
2022-08-17T02:04:01.588Z,3.63
2022-08-17T02:06:52.590Z,3.75
2022-08-17T02:09:25.903Z,3.53
2022-08-17T02:11:54.661Z,3.70
2022-08-17T02:14:23.391Z,3.67
2022-08-17T02:16:51.862Z,3.55
2022-08-17T02:19:20.364Z,3.75
2022-08-17T02:21:54.949Z,3.15
2022-08-17T02:25:00.719Z,3.22
2022-08-17T02:27:23.803Z,3.33
2022-08-17T02:29:51.924Z,3.58
2022-08-17T02:32:28.474Z,3.70
2022-08-17T02:34:57.486Z,3.13
2022-08-17T02:37:25.889Z,3.03
2022-08-17T02:39:56.958Z,3.70
2022-08-17T02:42:29.328Z,3.05
2022-08-17T02:44:57.513Z,3.38
2022-08-17T02:47:27.915Z,3.65
2022-08-17T02:49:56.349Z,3.85
2022-08-17T02:52:42.834Z,3.45
2022-08-17T02:55:16.069Z,3.28
2022-08-17T02:57:44.246Z,3.25
2022-08-17T03:00:15.458Z,3.53
2022-08-17T03:02:45.074Z,3.30
2022-08-17T03:05:15.452Z,3.20
2022-08-17T03:07:43.676Z,3.65
2022-08-17T03:10:14.275Z,3.40
2022-08-17T03:12:57.373Z,3.90
2022-08-17T03:15:27.971Z,3.17
2022-08-17T03:17:56.812Z,3.80
2022-08-17T03:20:26.271Z,3.90
2022-08-17T03:23:03.010Z,3.20
2022-08-17T03:25:35.987Z,3.78
2022-08-17T03:30:33.451Z,3.60
2022-08-17T03:33:05.294Z,3.53
2022-08-17T03:35:36.413Z,3.72
2022-08-17T03:38:06.027Z,3.67
2022-08-17T03:40:56.238Z,3.70
2022-08-17T03:43:24.899Z,3.78
2022-08-17T03:46:27.023Z,3.88
2022-08-17T03:49:13.718Z,3.75
2022-08-17T03:51:59.276Z,3.55
2022-08-17T03:54:44.595Z,3.90
2022-08-17T03:57:14.473Z,3.45
2022-08-17T03:59:42.736Z,3.67
2022-08-17T04:02:14.399Z,3.55
2022-08-17T04:04:42.707Z,3.50
2022-08-17T04:07:11.149Z,3.70
2022-08-17T04:09:39.281Z,4.03
2022-08-17T04:12:07.724Z,4.00
2022-08-17T04:14:53.740Z,3.92
2022-08-17T04:17:25.192Z,3.90
2022-08-17T04:19:54.054Z,4.07
2022-08-17T04:22:31.401Z,4.20
2022-08-17T04:25:04.758Z,3.80
2022-08-17T04:27:32.871Z,4.43
2022-08-17T04:30:02.829Z,3.97
2022-08-17T04:33:05.050Z,4.20
2022-08-17T04:35:22.326Z,3.97
2022-08-17T04:37:51.773Z,4.00
2022-08-17T04:40:38.609Z,3.65
2022-08-17T04:43:10.076Z,3.80
2022-08-17T04:45:55.181Z,4.07
2022-08-17T04:48:34.715Z,4.35
2022-08-17T04:51:10.460Z,4.38
2022-08-17T04:53:39.963Z,3.80
2022-08-17T04:56:11.678Z,4.35
2022-08-17T04:58:45.036Z,4.63
2022-08-17T05:01:14.946Z,4.90
2022-08-17T05:03:44.504Z,4.10
2022-08-17T05:06:13.017Z,4.60
2022-08-17T05:08:41.564Z,4.53
2022-08-17T05:11:10.283Z,4.60
2022-08-17T05:13:38.417Z,4.95
2022-08-17T05:16:06.872Z,4.57
2022-08-17T05:18:37.306Z,4.43
2022-08-17T05:21:06.771Z,4.55
2022-08-17T05:23:41.658Z,4.60
2022-08-17T05:26:22.591Z,4.38
2022-08-17T05:28:57.229Z,4.90
2022-08-17T05:31:28.078Z,4.15
2022-08-17T05:33:57.810Z,4.32
2022-08-17T05:36:42.199Z,4.65
2022-08-17T05:39:16.424Z,5.20
2022-08-17T05:41:46.880Z,4.30
2022-08-17T05:44:15.135Z,4.38
2022-08-17T05:46:48.681Z,4.50
2022-08-17T05:49:23.239Z,4.05
2022-08-17T05:52:19.543Z,4.22
2022-08-17T05:55:01.507Z,3.60
2022-08-17T05:57:43.410Z,4.00
2022-08-17T06:00:34.350Z,3.90
2022-08-17T06:03:23.491Z,3.28
2022-08-17T06:06:06.500Z,3.53
2022-08-17T06:08:41.174Z,4.25
2022-08-17T06:11:17.109Z,4.00
2022-08-17T06:14:12.381Z,4.15
2022-08-17T06:16:44.689Z,3.75
2022-08-17T06:19:18.215Z,3.20
2022-08-17T06:21:49.960Z,3.08
2022-08-17T06:24:29.189Z,3.58
2022-08-17T06:27:02.491Z,3.13
2022-08-17T06:29:38.599Z,3.25
2022-08-17T06:32:10.293Z,3.33
2022-08-17T06:34:43.690Z,3.00
2022-08-17T06:37:29.029Z,2.83
2022-08-17T06:40:13.497Z,2.85
2022-08-17T06:42:55.042Z,3.33
2022-08-17T06:45:39.947Z,2.93
2022-08-17T06:48:13.700Z,2.65
2022-08-17T06:50:48.172Z,3.40
2022-08-17T06:53:23.520Z,2.60
2022-08-17T06:55:59.903Z,2.90
2022-08-17T06:58:31.556Z,3.00
2022-08-17T07:01:06.996Z,2.60
2022-08-17T07:03:39.324Z,2.47
2022-08-17T07:06:12.352Z,2.70
2022-08-17T07:11:20.406Z,2.50
2022-08-17T07:13:57.671Z,2.67
2022-08-17T07:16:29.158Z,4.07
2022-08-17T07:19:00.044Z,2.78
2022-08-17T07:21:40.903Z,2.65
2022-08-17T07:24:30.681Z,2.97
2022-08-17T07:27:12.921Z,2.53
2022-08-17T07:29:46.407Z,2.72
2022-08-17T07:32:18.976Z,2.05
2022-08-17T07:35:11.434Z,2.13
2022-08-17T07:37:41.737Z,2.30
2022-08-17T07:40:30.841Z,2.10
2022-08-17T07:43:23.044Z,3.00
2022-08-17T07:46:24.503Z,2.33
2022-08-17T07:48:55.432Z,2.45
2022-08-17T07:51:32.599Z,2.63
2022-08-17T07:54:14.114Z,2.45
2022-08-17T07:56:47.555Z,2.33
2022-08-17T07:59:21.840Z,2.03
2022-08-17T08:02:06.144Z,2.38
2022-08-17T08:07:29.478Z,2.17
2022-08-17T08:10:10.708Z,2.20
2022-08-17T08:12:42.394Z,2.00
2022-08-17T08:15:18.613Z,2.20
2022-08-17T08:17:51.871Z,2.30
2022-08-17T08:20:34.996Z,2.45
2022-08-17T08:23:21.196Z,1.92
2022-08-17T08:26:01.520Z,1.73
2022-08-17T08:28:37.483Z,2.50
2022-08-17T08:31:13.876Z,2.10
2022-08-17T08:33:51.876Z,2.03
2022-08-17T08:37:13.089Z,2.08
2022-08-17T08:39:35.763Z,2.70
2022-08-17T08:42:14.128Z,2.13
2022-08-17T08:44:59.473Z,2.10
2022-08-17T08:47:55.439Z,1.73
2022-08-17T08:50:36.954Z,2.22
2022-08-17T08:53:19.074Z,2.60
2022-08-17T08:55:53.953Z,2.17
2022-08-17T08:58:41.678Z,2.67
2022-08-17T09:01:21.778Z,2.05
2022-08-17T09:04:19.562Z,2.17
2022-08-17T09:07:00.807Z,2.08
2022-08-17T09:09:36.724Z,2.30
2022-08-17T09:12:09.991Z,2.50
2022-08-17T09:14:46.468Z,2.03
2022-08-17T09:17:20.960Z,2.53
2022-08-17T09:19:54.697Z,2.60
2022-08-17T09:22:31.733Z,2.20
2022-08-17T09:25:07.479Z,2.40
2022-08-17T09:27:46.307Z,2.35
2022-08-17T09:30:15.948Z,2.65
2022-08-17T09:32:55.382Z,2.60
2022-08-17T09:35:37.234Z,2.40
2022-08-17T09:38:15.928Z,2.10
2022-08-17T09:40:51.605Z,2.40
2022-08-17T09:43:30.552Z,2.53
2022-08-17T09:46:02.926Z,2.03
2022-08-17T09:48:39.132Z,2.40
2022-08-17T09:51:13.861Z,2.42
2022-08-17T09:53:44.735Z,2.22
2022-08-17T09:56:34.425Z,2.38
2022-08-17T09:59:38.481Z,2.20
2022-08-17T10:02:28.792Z,2.78
2022-08-17T10:05:03.786Z,2.45
2022-08-17T10:07:38.090Z,2.28
2022-08-17T10:10:14.317Z,2.75
2022-08-17T10:12:47.442Z,2.20
2022-08-17T10:15:30.455Z,2.17
2022-08-17T10:18:31.949Z,2.53
2022-08-17T10:21:37.863Z,2.47
2022-08-17T10:24:31.623Z,2.22
2022-08-17T10:27:02.725Z,3.00
2022-08-17T10:29:49.083Z,2.63
2022-08-17T10:32:27.173Z,2.53
2022-08-17T10:35:07.312Z,2.90
2022-08-17T10:37:49.806Z,2.65
2022-08-17T10:40:28.451Z,2.55
2022-08-17T10:43:02.790Z,2.83
2022-08-17T10:45:36.962Z,2.53
2022-08-17T10:48:28.228Z,2.50
2022-08-17T10:51:07.649Z,2.50
2022-08-17T10:53:56.517Z,2.72
2022-08-17T10:56:48.329Z,2.92
2022-08-17T10:59:52.356Z,2.50
2022-08-17T11:02:30.421Z,2.45
2022-08-17T11:05:13.208Z,3.22
2022-08-17T11:07:59.884Z,2.50
2022-08-17T11:10:57.982Z,2.55
2022-08-17T11:13:37.737Z,2.90
2022-08-17T11:16:25.004Z,2.65
2022-08-17T11:19:13.843Z,2.55
2022-08-17T11:22:04.763Z,2.63
2022-08-17T11:24:37.562Z,2.55
2022-08-17T11:27:12.468Z,2.35
2022-08-17T11:29:53.667Z,2.25
2022-08-17T11:32:33.579Z,2.63
2022-08-17T11:35:12.956Z,2.65
2022-08-17T11:37:55.055Z,2.45
2022-08-17T11:40:41.225Z,2.87
2022-08-17T11:43:44.432Z,2.95
2022-08-17T11:46:21.050Z,2.33
2022-08-17T11:49:18.400Z,2.85
2022-08-17T11:52:12.619Z,2.33
2022-08-17T11:54:46.529Z,2.90
2022-08-17T11:58:06.423Z,2.40
2022-08-17T12:00:58.133Z,2.58
2022-08-17T12:03:54.209Z,2.70
2022-08-17T12:06:43.305Z,2.85
2022-08-17T12:09:18.058Z,2.63
2022-08-17T12:11:58.835Z,2.60
2022-08-17T12:17:40.417Z,2.70
2022-08-17T12:20:16.212Z,2.70
2022-08-17T12:22:54.931Z,3.00
2022-08-17T12:25:32.980Z,2.63
2022-08-17T12:28:06.099Z,2.67
2022-08-17T12:30:35.999Z,2.75
2022-08-17T12:33:12.693Z,2.53
2022-08-17T12:35:41.015Z,2.95
2022-08-17T12:38:28.125Z,2.55
2022-08-17T12:40:59.906Z,2.47
2022-08-17T12:43:32.948Z,2.30
2022-08-17T12:46:13.214Z,2.55
2022-08-17T12:48:59.014Z,2.05
2022-08-17T12:51:29.213Z,2.22
2022-08-17T12:53:57.585Z,2.22
2022-08-17T12:56:26.065Z,2.08
2022-08-17T12:58:56.586Z,1.75
2022-08-17T13:01:26.015Z,1.90
2022-08-17T13:03:59.781Z,2.10
2022-08-17T13:06:31.488Z,2.75
2022-08-17T13:09:10.613Z,2.47
2022-08-17T13:11:48.166Z,1.77
2022-08-17T13:14:18.358Z,2.22
2022-08-17T13:16:53.302Z,1.58
2022-08-17T13:19:39.761Z,1.58
2022-08-17T13:22:13.632Z,2.05
2022-08-17T13:27:25.078Z,1.63
2022-08-17T13:29:57.284Z,2.03
2022-08-17T13:32:37.003Z,1.90
2022-08-17T13:35:39.802Z,2.40
2022-08-17T13:38:11.108Z,2.10
2022-08-17T13:40:43.906Z,2.00
2022-08-17T13:43:13.123Z,2.80
2022-08-17T13:45:52.756Z,2.10
2022-08-17T13:48:27.765Z,2.40
2022-08-17T13:51:29.351Z,2.25
2022-08-17T13:54:25.593Z,2.22
2022-08-17T13:57:00.909Z,2.22
2022-08-17T13:59:53.807Z,2.53
2022-08-17T14:02:26.628Z,2.40
2022-08-17T14:04:57.371Z,2.38
2022-08-17T14:07:35.295Z,2.47
2022-08-17T14:10:08.298Z,2.08
2022-08-17T14:12:39.369Z,2.22
2022-08-17T14:15:09.085Z,2.05
2022-08-17T14:17:39.027Z,2.40
2022-08-17T14:20:11.010Z,2.35
2022-08-17T14:22:44.288Z,2.17
2022-08-17T14:25:15.552Z,2.45
2022-08-17T14:27:52.765Z,2.30
2022-08-17T14:30:24.588Z,2.45
2022-08-17T14:32:53.363Z,2.45
2022-08-17T14:35:23.959Z,2.50
2022-08-17T14:37:54.601Z,1.98
2022-08-17T14:40:24.574Z,2.20
2022-08-17T14:42:55.104Z,2.25
2022-08-17T14:45:30.231Z,2.38
2022-08-17T14:48:04.032Z,2.38
2022-08-17T14:50:35.400Z,2.05
2022-08-17T14:53:06.375Z,2.35
2022-08-17T14:55:36.857Z,2.55
2022-08-17T14:58:07.198Z,2.25
2022-08-17T15:00:35.807Z,2.42
2022-08-17T15:03:05.323Z,2.42
2022-08-17T15:05:38.415Z,2.20
2022-08-17T15:10:39.237Z,1.88
2022-08-17T15:13:17.026Z,2.08
2022-08-17T15:15:45.263Z,2.00
2022-08-17T15:18:13.964Z,2.13
2022-08-17T15:20:42.868Z,2.20
2022-08-17T15:23:15.798Z,2.10
2022-08-17T15:25:44.240Z,2.10
2022-08-17T15:28:12.814Z,2.15
2022-08-17T15:30:43.104Z,2.30
2022-08-17T15:33:14.672Z,2.38
2022-08-17T15:35:45.111Z,2.03
2022-08-17T15:38:15.117Z,2.38
2022-08-17T15:40:46.708Z,2.15
2022-08-17T15:43:19.285Z,2.00
2022-08-17T15:45:56.809Z,1.92
2022-08-17T15:48:40.783Z,1.90
2022-08-17T15:51:14.619Z,2.15
2022-08-17T15:53:46.379Z,1.92
2022-08-17T15:56:15.335Z,2.10
2022-08-17T15:58:44.743Z,2.22
2022-08-17T16:01:18.853Z,2.10
2022-08-17T16:04:06.541Z,2.03
2022-08-17T16:06:35.640Z,2.30
2022-08-17T16:09:05.310Z,1.77
2022-08-17T16:11:33.469Z,2.38
2022-08-17T16:14:01.603Z,2.10
2022-08-17T16:16:31.343Z,2.10
2022-08-17T16:18:59.520Z,2.20
2022-08-17T16:21:29.686Z,2.20
2022-08-17T16:24:02.247Z,2.53
2022-08-17T16:26:33.571Z,2.42
2022-08-17T16:29:04.387Z,2.33
2022-08-17T16:31:32.684Z,2.20
2022-08-17T16:34:16.135Z,1.88
2022-08-17T16:36:54.614Z,2.22
2022-08-17T16:39:26.269Z,2.30
2022-08-17T16:41:56.534Z,2.22
2022-08-17T16:44:25.806Z,2.20
2022-08-17T16:46:54.195Z,2.55
2022-08-17T16:49:35.992Z,2.55
2022-08-17T16:52:11.006Z,2.10
2022-08-17T16:54:41.841Z,2.30
2022-08-17T16:57:11.421Z,2.65
2022-08-17T16:59:43.688Z,2.33
2022-08-17T17:02:17.081Z,2.72
2022-08-17T17:04:52.775Z,2.20
2022-08-17T17:07:46.662Z,2.30
2022-08-17T17:10:18.492Z,2.47
2022-08-17T17:13:01.334Z,2.53
2022-08-17T17:15:48.283Z,3.00
2022-08-17T17:18:17.754Z,2.38
2022-08-17T17:20:53.516Z,2.30
2022-08-17T17:23:35.290Z,2.45
2022-08-17T17:26:17.072Z,2.25
2022-08-17T17:28:56.846Z,2.20
2022-08-17T17:31:30.591Z,2.60
2022-08-17T17:34:03.807Z,2.47
2022-08-17T17:36:38.295Z,2.40
2022-08-17T17:39:13.049Z,2.30
2022-08-17T17:41:47.655Z,2.50
2022-08-17T17:44:23.024Z,2.25
2022-08-17T17:46:55.613Z,2.63
2022-08-17T17:49:24.465Z,2.20
2022-08-17T17:52:10.928Z,2.70
2022-08-17T17:54:54.035Z,2.60
2022-08-17T17:57:33.437Z,2.50
2022-08-17T18:00:08.999Z,2.60
2022-08-17T18:02:51.376Z,2.72
2022-08-17T18:05:35.614Z,2.70
2022-08-17T18:08:12.256Z,2.90
2022-08-17T18:10:51.199Z,3.05
2022-08-17T18:13:29.415Z,2.58
2022-08-17T18:16:01.086Z,2.85
2022-08-17T18:18:37.816Z,2.35
2022-08-17T18:21:14.948Z,2.38
2022-08-17T18:23:58.698Z,2.72
2022-08-17T18:26:44.724Z,2.38
2022-08-17T18:29:42.444Z,2.42
2022-08-17T18:32:28.785Z,2.60
2022-08-17T18:35:00.375Z,2.72
2022-08-17T18:37:37.797Z,2.80
2022-08-17T18:40:39.240Z,2.65
2022-08-17T18:43:24.476Z,2.92
2022-08-17T18:45:55.302Z,2.60
2022-08-17T18:48:33.088Z,3.05
2022-08-17T18:51:03.536Z,2.53
2022-08-17T18:53:36.571Z,2.42
2022-08-17T18:56:38.196Z,2.65
2022-08-17T18:59:12.664Z,3.20
2022-08-17T19:01:54.685Z,3.15
2022-08-17T19:04:34.123Z,3.05
2022-08-17T19:07:13.442Z,2.95
2022-08-17T19:09:47.020Z,3.50
2022-08-17T19:12:27.276Z,2.83
2022-08-17T19:14:57.629Z,2.63
2022-08-17T19:17:31.887Z,2.80
2022-08-17T19:20:06.642Z,3.10
2022-08-17T19:22:51.754Z,3.03
2022-08-17T19:25:25.680Z,3.30
2022-08-17T19:27:58.667Z,2.95
2022-08-17T19:30:27.813Z,3.08
2022-08-17T19:32:58.335Z,3.22
2022-08-17T19:35:36.580Z,2.97
2022-08-17T19:38:13.277Z,3.50
2022-08-17T19:40:54.369Z,2.92
2022-08-17T19:43:32.030Z,3.35
2022-08-17T19:46:06.078Z,2.65
2022-08-17T19:48:45.574Z,3.58
2022-08-17T19:51:20.733Z,3.20
2022-08-17T19:54:05.373Z,3.05
2022-08-17T19:56:42.095Z,3.03
2022-08-17T19:59:16.961Z,3.00
2022-08-17T20:01:50.181Z,3.47
2022-08-17T20:04:34.624Z,3.10
2022-08-17T20:07:08.084Z,3.33
2022-08-17T20:09:39.230Z,3.05
2022-08-17T20:12:13.119Z,3.67
2022-08-17T20:14:53.812Z,3.10
2022-08-17T20:17:28.612Z,3.25
2022-08-17T20:20:04.815Z,3.03
2022-08-17T20:22:49.597Z,3.03
2022-08-17T20:25:30.539Z,3.25
2022-08-17T20:28:06.186Z,3.55
2022-08-17T20:30:39.023Z,3.33
2022-08-17T20:33:12.434Z,2.60
2022-08-17T20:36:00.436Z,3.97
2022-08-17T20:38:44.815Z,3.55
2022-08-17T20:41:17.683Z,3.13
2022-08-17T20:44:04.092Z,3.22
2022-08-17T20:46:52.965Z,3.20
2022-08-17T20:49:28.138Z,3.42
2022-08-17T20:52:03.523Z,3.28
2022-08-17T20:54:49.845Z,3.38
2022-08-17T20:57:47.865Z,3.20
2022-08-17T21:00:41.707Z,3.33
2022-08-17T21:03:51.353Z,3.58
2022-08-17T21:06:26.139Z,3.10
2022-08-17T21:08:58.869Z,3.20
2022-08-17T21:12:04.527Z,3.13
2022-08-17T21:14:58.049Z,3.30
2022-08-17T21:17:48.340Z,3.27
2022-08-17T21:20:32.129Z,3.45
2022-08-17T21:23:20.856Z,3.80
2022-08-17T21:26:02.867Z,3.83
2022-08-17T21:29:00.604Z,3.80
2022-08-17T21:31:34.451Z,3.45
2022-08-17T21:34:26.371Z,3.55
2022-08-17T21:36:56.867Z,3.28
2022-08-17T21:39:33.524Z,3.40
2022-08-17T21:42:02.433Z,3.58
2022-08-17T21:44:38.037Z,3.53
2022-08-17T21:47:20.198Z,4.28
2022-08-17T21:49:49.345Z,3.53
2022-08-17T21:52:20.691Z,3.38
2022-08-17T21:54:52.079Z,3.33
2022-08-17T21:57:23.229Z,3.67
2022-08-17T21:59:58.247Z,3.67
2022-08-17T22:02:38.915Z,3.58
2022-08-17T22:05:10.257Z,3.75
2022-08-17T22:07:42.596Z,4.05
2022-08-17T22:10:30.457Z,4.63
2022-08-17T22:13:17.057Z,4.75
2022-08-17T22:15:50.033Z,4.75
2022-08-17T22:18:26.178Z,4.22
2022-08-17T22:20:57.876Z,5.05
2022-08-17T22:23:52.636Z,5.18
2022-08-17T22:26:22.761Z,4.20
2022-08-17T22:28:52.944Z,5.05
2022-08-17T22:31:24.852Z,4.90
2022-08-17T22:34:07.493Z,5.50
2022-08-17T22:36:37.406Z,6.22
2022-08-17T22:39:40.720Z,5.75
2022-08-17T22:42:15.667Z,6.10
2022-08-17T22:44:49.568Z,5.45
2022-08-17T22:47:38.736Z,6.13
2022-08-17T22:50:14.923Z,6.07
2022-08-17T22:52:59.583Z,6.20
2022-08-17T22:55:48.687Z,6.05
2022-08-17T22:58:38.131Z,6.80
2022-08-17T23:01:25.540Z,6.75
2022-08-17T23:03:58.017Z,8.07
2022-08-17T23:06:26.748Z,7.57
2022-08-17T23:08:56.340Z,8.73
2022-08-17T23:11:36.861Z,7.82
2022-08-17T23:14:15.833Z,8.35
2022-08-17T23:16:44.286Z,9.13
2022-08-17T23:19:16.415Z,9.68
2022-08-17T23:21:45.989Z,9.38
2022-08-17T23:24:18.053Z,8.48
2022-08-17T23:26:46.270Z,8.77
2022-08-17T23:29:14.393Z,8.40
2022-08-17T23:31:42.803Z,8.38
2022-08-17T23:34:30.058Z,9.38
2022-08-17T23:37:04.393Z,8.70
2022-08-17T23:39:32.906Z,8.85
2022-08-17T23:42:05.160Z,8.73
2022-08-17T23:44:33.904Z,10.17
2022-08-17T23:47:05.003Z,9.70
2022-08-17T23:49:34.769Z,10.18
2022-08-17T23:52:05.779Z,9.82
2022-08-17T23:54:37.445Z,10.02
2022-08-17T23:57:06.096Z,10.50
2022-08-17T23:59:37.247Z,9.60
